sensor_id;sensor_type;location;lat;lon;timestamp;P1;durP1;ratioP1;P2;durP2;ratioP2
70388;SDS011;58659;49.050;8.530;2023-07-29T00:00:42;0.90;;;0.90;;
70388;SDS011;58659;49.050;8.530;2023-07-29T00:03:07;0.93;;;0.80;;
70388;SDS011;58659;49.050;8.530;2023-07-29T00:05:33;1.07;;;0.93;;
70388;SDS011;58659;49.050;8.530;2023-07-29T00:07:58;1.07;;;1.00;;
70388;SDS011;58659;49.050;8.530;2023-07-29T00:10:24;0.90;;;0.90;;
70388;SDS011;58659;49.050;8.530;2023-07-29T00:12:49;3.93;;;1.00;;
70388;SDS011;58659;49.050;8.530;2023-07-29T00:15:14;2.30;;;0.90;;
70388;SDS011;58659;49.050;8.530;2023-07-29T00:17:40;0.80;;;0.80;;
70388;SDS011;58659;49.050;8.530;2023-07-29T00:20:05;0.80;;;0.80;;
70388;SDS011;58659;49.050;8.530;2023-07-29T00:22:31;5.30;;;1.13;;
70388;SDS011;58659;49.050;8.530;2023-07-29T00:24:57;2.93;;;0.90;;
70388;SDS011;58659;49.050;8.530;2023-07-29T00:27:24;1.33;;;0.80;;
70388;SDS011;58659;49.050;8.530;2023-07-29T00:29:49;1.17;;;0.90;;
70388;SDS011;58659;49.050;8.530;2023-07-29T00:32:15;0.80;;;0.80;;
70388;SDS011;58659;49.050;8.530;2023-07-29T00:34:40;0.87;;;0.80;;
70388;SDS011;58659;49.050;8.530;2023-07-29T00:37:05;1.60;;;0.80;;
70388;SDS011;58659;49.050;8.530;2023-07-29T00:39:31;0.97;;;0.80;;
70388;SDS011;58659;49.050;8.530;2023-07-29T00:41:59;1.17;;;0.90;;
70388;SDS011;58659;49.050;8.530;2023-07-29T00:44:27;2.67;;;0.90;;
70388;SDS011;58659;49.050;8.530;2023-07-29T00:46:52;1.20;;;0.70;;
70388;SDS011;58659;49.050;8.530;2023-07-29T00:49:21;1.10;;;1.00;;
70388;SDS011;58659;49.050;8.530;2023-07-29T00:51:47;1.47;;;1.00;;
70388;SDS011;58659;49.050;8.530;2023-07-29T00:54:12;2.43;;;0.90;;
70388;SDS011;58659;49.050;8.530;2023-07-29T00:56:38;1.43;;;1.00;;
70388;SDS011;58659;49.050;8.530;2023-07-29T00:59:04;0.90;;;0.80;;
70388;SDS011;58659;49.050;8.530;2023-07-29T01:01:30;0.87;;;0.87;;
70388;SDS011;58659;49.050;8.530;2023-07-29T01:07:35;1.43;;;0.93;;
70388;SDS011;58659;49.050;8.530;2023-07-29T01:10:04;0.80;;;0.80;;
70388;SDS011;58659;49.050;8.530;2023-07-29T05:25:38;1.70;;;1.20;;
70388;SDS011;58659;49.050;8.530;2023-07-29T05:28:04;3.30;;;1.00;;
70388;SDS011;58659;49.050;8.530;2023-07-29T05:30:32;1.70;;;1.10;;
70388;SDS011;58659;49.050;8.530;2023-07-29T05:32:58;1.20;;;1.10;;
70388;SDS011;58659;49.050;8.530;2023-07-29T05:35:24;1.63;;;1.10;;
70388;SDS011;58659;49.050;8.530;2023-07-29T05:37:50;1.57;;;1.00;;
70388;SDS011;58659;49.050;8.530;2023-07-29T05:40:15;0.80;;;0.80;;
70388;SDS011;58659;49.050;8.530;2023-07-29T05:42:40;0.97;;;0.90;;
70388;SDS011;58659;49.050;8.530;2023-07-29T05:45:06;2.00;;;1.20;;
70388;SDS011;58659;49.050;8.530;2023-07-29T05:47:32;0.90;;;0.90;;
70388;SDS011;58659;49.050;8.530;2023-07-29T05:49:58;1.00;;;0.90;;
70388;SDS011;58659;49.050;8.530;2023-07-29T05:52:23;2.70;;;0.90;;
70388;SDS011;58659;49.050;8.530;2023-07-29T05:54:48;1.50;;;1.13;;
70388;SDS011;58659;49.050;8.530;2023-07-29T05:57:13;1.03;;;1.00;;
70388;SDS011;58659;49.050;8.530;2023-07-29T05:59:39;1.73;;;0.90;;
70388;SDS011;58659;49.050;8.530;2023-07-29T06:02:04;1.50;;;0.87;;
70388;SDS011;58659;49.050;8.530;2023-07-29T06:04:30;1.67;;;1.13;;
70388;SDS011;58659;49.050;8.530;2023-07-29T06:09:21;1.60;;;1.20;;
70388;SDS011;58659;49.050;8.530;2023-07-29T06:11:47;1.00;;;0.90;;
70388;SDS011;58659;49.050;8.530;2023-07-29T06:14:12;1.23;;;1.00;;
70388;SDS011;58659;49.050;8.530;2023-07-29T06:16:37;1.10;;;1.00;;
70388;SDS011;58659;49.050;8.530;2023-07-29T06:19:03;1.10;;;1.00;;
70388;SDS011;58659;49.050;8.530;2023-07-29T06:21:28;5.40;;;0.93;;
70388;SDS011;58659;49.050;8.530;2023-07-29T06:23:53;1.33;;;1.03;;
70388;SDS011;58659;49.050;8.530;2023-07-29T06:26:19;1.43;;;1.10;;
70388;SDS011;58659;49.050;8.530;2023-07-29T06:28:44;2.20;;;1.90;;
70388;SDS011;58659;49.050;8.530;2023-07-29T06:31:09;1.80;;;1.00;;
70388;SDS011;58659;49.050;8.530;2023-07-29T06:33:35;3.17;;;1.27;;
70388;SDS011;58659;49.050;8.530;2023-07-29T06:36:00;1.17;;;0.97;;
70388;SDS011;58659;49.050;8.530;2023-07-29T06:38:25;1.77;;;1.30;;
70388;SDS011;58659;49.050;8.530;2023-07-29T06:40:51;1.20;;;1.10;;
70388;SDS011;58659;49.050;8.530;2023-07-29T06:43:17;1.87;;;1.27;;
70388;SDS011;58659;49.050;8.530;2023-07-29T06:45:42;1.57;;;1.13;;
70388;SDS011;58659;49.050;8.530;2023-07-29T06:48:08;1.67;;;1.23;;
70388;SDS011;58659;49.050;8.530;2023-07-29T06:50:33;2.27;;;1.50;;
70388;SDS011;58659;49.050;8.530;2023-07-29T06:52:58;2.07;;;1.70;;
70388;SDS011;58659;49.050;8.530;2023-07-29T06:55:24;2.30;;;1.67;;
70388;SDS011;58659;49.050;8.530;2023-07-29T06:57:52;3.50;;;1.60;;
70388;SDS011;58659;49.050;8.530;2023-07-29T07:00:18;1.77;;;1.40;;
70388;SDS011;58659;49.050;8.530;2023-07-29T07:02:43;3.93;;;1.70;;
70388;SDS011;58659;49.050;8.530;2023-07-29T07:05:08;1.70;;;1.20;;
70388;SDS011;58659;49.050;8.530;2023-07-29T07:07:34;1.93;;;1.20;;
70388;SDS011;58659;49.050;8.530;2023-07-29T07:09:59;2.13;;;1.43;;
70388;SDS011;58659;49.050;8.530;2023-07-29T07:12:24;1.10;;;1.00;;
70388;SDS011;58659;49.050;8.530;2023-07-29T07:14:50;2.00;;;1.50;;
70388;SDS011;58659;49.050;8.530;2023-07-29T07:17:15;4.67;;;1.53;;
70388;SDS011;58659;49.050;8.530;2023-07-29T07:19:40;4.90;;;1.37;;
70388;SDS011;58659;49.050;8.530;2023-07-29T07:22:06;2.00;;;1.37;;
70388;SDS011;58659;49.050;8.530;2023-07-29T07:24:31;2.00;;;1.47;;
70388;SDS011;58659;49.050;8.530;2023-07-29T07:26:56;2.97;;;1.37;;
70388;SDS011;58659;49.050;8.530;2023-07-29T07:29:22;2.03;;;1.47;;
70388;SDS011;58659;49.050;8.530;2023-07-29T07:31:51;2.13;;;1.37;;
70388;SDS011;58659;49.050;8.530;2023-07-29T07:34:18;2.87;;;1.40;;
70388;SDS011;58659;49.050;8.530;2023-07-29T07:36:46;1.50;;;1.40;;
70388;SDS011;58659;49.050;8.530;2023-07-29T07:39:12;2.70;;;1.30;;
70388;SDS011;58659;49.050;8.530;2023-07-29T07:41:37;1.77;;;1.10;;
70388;SDS011;58659;49.050;8.530;2023-07-29T07:44:05;1.77;;;1.50;;
70388;SDS011;58659;49.050;8.530;2023-07-29T07:46:31;2.80;;;1.60;;
70388;SDS011;58659;49.050;8.530;2023-07-29T07:48:56;2.50;;;1.57;;
70388;SDS011;58659;49.050;8.530;2023-07-29T07:51:21;3.53;;;1.50;;
70388;SDS011;58659;49.050;8.530;2023-07-29T07:53:47;3.40;;;1.63;;
70388;SDS011;58659;49.050;8.530;2023-07-29T07:56:12;2.77;;;1.90;;
70388;SDS011;58659;49.050;8.530;2023-07-29T07:58:38;2.87;;;1.70;;
70388;SDS011;58659;49.050;8.530;2023-07-29T08:01:07;3.57;;;1.67;;
70388;SDS011;58659;49.050;8.530;2023-07-29T08:03:34;2.07;;;1.33;;
70388;SDS011;58659;49.050;8.530;2023-07-29T08:06:00;5.10;;;1.93;;
70388;SDS011;58659;49.050;8.530;2023-07-29T08:08:26;2.40;;;1.30;;
70388;SDS011;58659;49.050;8.530;2023-07-29T08:10:55;4.60;;;1.47;;
70388;SDS011;58659;49.050;8.530;2023-07-29T08:13:22;1.47;;;1.00;;
70388;SDS011;58659;49.050;8.530;2023-07-29T08:15:48;1.47;;;1.20;;
70388;SDS011;58659;49.050;8.530;2023-07-29T08:18:17;2.77;;;1.63;;
70388;SDS011;58659;49.050;8.530;2023-07-29T08:23:27;3.93;;;1.47;;
70388;SDS011;58659;49.050;8.530;2023-07-29T08:25:53;2.57;;;1.33;;
70388;SDS011;58659;49.050;8.530;2023-07-29T08:28:21;1.43;;;1.17;;
70388;SDS011;58659;49.050;8.530;2023-07-29T08:30:49;2.27;;;1.50;;
70388;SDS011;58659;49.050;8.530;2023-07-29T08:33:15;2.13;;;0.83;;
70388;SDS011;58659;49.050;8.530;2023-07-29T08:35:43;6.20;;;1.40;;
70388;SDS011;58659;49.050;8.530;2023-07-29T08:38:08;1.17;;;1.00;;
70388;SDS011;58659;49.050;8.530;2023-07-29T08:40:34;2.40;;;1.20;;
70388;SDS011;58659;49.050;8.530;2023-07-29T09:58:43;1.47;;;1.20;;
70388;SDS011;58659;49.050;8.530;2023-07-29T10:01:12;1.10;;;1.00;;
70388;SDS011;58659;49.050;8.530;2023-07-29T10:03:39;1.00;;;0.87;;
70388;SDS011;58659;49.050;8.530;2023-07-29T10:06:05;2.20;;;0.90;;
70388;SDS011;58659;49.050;8.530;2023-07-29T10:08:31;2.30;;;1.00;;
70388;SDS011;58659;49.050;8.530;2023-07-29T10:11:00;1.00;;;0.90;;
70388;SDS011;58659;49.050;8.530;2023-07-29T10:13:26;1.53;;;1.20;;
70388;SDS011;58659;49.050;8.530;2023-07-29T10:15:55;1.13;;;0.90;;
70388;SDS011;58659;49.050;8.530;2023-07-29T10:18:22;1.10;;;1.00;;
70388;SDS011;58659;49.050;8.530;2023-07-29T10:20:48;2.50;;;1.17;;
70388;SDS011;58659;49.050;8.530;2023-07-29T10:23:19;6.30;;;1.20;;
70388;SDS011;58659;49.050;8.530;2023-07-29T10:25:49;1.70;;;1.13;;
70388;SDS011;58659;49.050;8.530;2023-07-29T10:28:17;2.50;;;1.30;;
70388;SDS011;58659;49.050;8.530;2023-07-29T10:30:45;1.10;;;1.00;;
70388;SDS011;58659;49.050;8.530;2023-07-29T10:33:11;2.90;;;1.00;;
70388;SDS011;58659;49.050;8.530;2023-07-29T10:35:37;1.80;;;1.10;;
70388;SDS011;58659;49.050;8.530;2023-07-29T10:38:03;1.10;;;1.00;;
70388;SDS011;58659;49.050;8.530;2023-07-29T10:40:49;1.30;;;1.20;;
70388;SDS011;58659;49.050;8.530;2023-07-29T10:46:18;0.90;;;0.90;;
70388;SDS011;58659;49.050;8.530;2023-07-29T10:51:27;0.90;;;0.90;;
70388;SDS011;58659;49.050;8.530;2023-07-29T10:56:31;0.93;;;0.93;;
70388;SDS011;58659;49.050;8.530;2023-07-29T11:44:02;1.65;;;1.08;;
70388;SDS011;58659;49.050;8.530;2023-07-29T11:46:34;1.25;;;0.90;;
70388;SDS011;58659;49.050;8.530;2023-07-29T11:48:59;1.88;;;1.23;;
70388;SDS011;58659;49.050;8.530;2023-07-29T11:51:25;1.40;;;1.30;;
70388;SDS011;58659;49.050;8.530;2023-07-29T11:53:51;1.52;;;0.95;;
70388;SDS011;58659;49.050;8.530;2023-07-29T11:56:16;1.17;;;1.00;;
70388;SDS011;58659;49.050;8.530;2023-07-29T11:58:42;1.10;;;0.95;;
70388;SDS011;58659;49.050;8.530;2023-07-29T12:01:07;1.10;;;1.00;;
70388;SDS011;58659;49.050;8.530;2023-07-29T12:03:34;1.10;;;1.00;;
70388;SDS011;58659;49.050;8.530;2023-07-29T12:06:00;1.30;;;1.20;;
70388;SDS011;58659;49.050;8.530;2023-07-29T12:08:25;2.03;;;1.40;;
70388;SDS011;58659;49.050;8.530;2023-07-29T12:10:51;1.40;;;1.00;;
70388;SDS011;58659;49.050;8.530;2023-07-29T12:13:16;1.47;;;0.97;;
70388;SDS011;58659;49.050;8.530;2023-07-29T12:15:41;1.40;;;1.20;;
70388;SDS011;58659;49.050;8.530;2023-07-29T12:18:07;0.90;;;0.90;;
70388;SDS011;58659;49.050;8.530;2023-07-29T12:20:32;1.70;;;1.50;;
70388;SDS011;58659;49.050;8.530;2023-07-29T12:22:59;0.93;;;0.88;;
70388;SDS011;58659;49.050;8.530;2023-07-29T12:25:30;3.00;;;1.63;;
70388;SDS011;58659;49.050;8.530;2023-07-29T12:27:55;1.75;;;1.25;;
70388;SDS011;58659;49.050;8.530;2023-07-29T12:30:21;1.52;;;1.42;;
70388;SDS011;58659;49.050;8.530;2023-07-29T12:32:47;1.98;;;1.30;;
70388;SDS011;58659;49.050;8.530;2023-07-29T12:35:13;1.13;;;1.08;;
70388;SDS011;58659;49.050;8.530;2023-07-29T12:37:39;1.30;;;1.00;;
70388;SDS011;58659;49.050;8.530;2023-07-29T12:40:07;1.20;;;1.10;;
70388;SDS011;58659;49.050;8.530;2023-07-29T12:42:34;1.33;;;1.23;;
70388;SDS011;58659;49.050;8.530;2023-07-29T12:45:00;1.27;;;1.17;;
70388;SDS011;58659;49.050;8.530;2023-07-29T12:47:25;1.20;;;1.10;;
70388;SDS011;58659;49.050;8.530;2023-07-29T17:28:44;3.35;;;1.40;;
70388;SDS011;58659;49.050;8.530;2023-07-29T17:31:11;1.63;;;1.23;;
70388;SDS011;58659;49.050;8.530;2023-07-29T17:33:37;2.20;;;1.55;;
70388;SDS011;58659;49.050;8.530;2023-07-29T17:36:02;1.70;;;1.25;;
70388;SDS011;58659;49.050;8.530;2023-07-29T17:38:28;3.47;;;1.50;;
70388;SDS011;58659;49.050;8.530;2023-07-29T17:40:53;2.38;;;1.70;;
70388;SDS011;58659;49.050;8.530;2023-07-29T17:43:21;2.03;;;1.37;;
70388;SDS011;58659;49.050;8.530;2023-07-29T17:45:46;2.70;;;1.45;;
70388;SDS011;58659;49.050;8.530;2023-07-29T17:48:11;3.58;;;1.40;;
70388;SDS011;58659;49.050;8.530;2023-07-29T17:50:37;2.63;;;1.37;;
70388;SDS011;58659;49.050;8.530;2023-07-29T17:53:02;1.13;;;1.00;;
70388;SDS011;58659;49.050;8.530;2023-07-29T17:55:28;1.50;;;1.30;;
70388;SDS011;58659;49.050;8.530;2023-07-29T17:57:53;1.63;;;1.50;;
70388;SDS011;58659;49.050;8.530;2023-07-29T18:00:18;2.00;;;1.30;;
70388;SDS011;58659;49.050;8.530;2023-07-29T18:02:44;1.80;;;1.40;;
70388;SDS011;58659;49.050;8.530;2023-07-29T18:05:09;2.80;;;1.27;;
70388;SDS011;58659;49.050;8.530;2023-07-29T18:07:34;2.03;;;1.27;;
70388;SDS011;58659;49.050;8.530;2023-07-29T18:10:00;2.77;;;1.33;;
70388;SDS011;58659;49.050;8.530;2023-07-29T18:12:25;1.57;;;1.10;;
70388;SDS011;58659;49.050;8.530;2023-07-29T18:14:50;1.33;;;1.20;;
70388;SDS011;58659;49.050;8.530;2023-07-29T18:17:16;2.40;;;1.33;;
70388;SDS011;58659;49.050;8.530;2023-07-29T18:19:41;2.10;;;1.20;;
70388;SDS011;58659;49.050;8.530;2023-07-29T18:22:08;2.10;;;1.33;;
70388;SDS011;58659;49.050;8.530;2023-07-29T18:24:34;1.40;;;1.27;;
70388;SDS011;58659;49.050;8.530;2023-07-29T18:26:59;2.23;;;1.40;;
70388;SDS011;58659;49.050;8.530;2023-07-29T18:29:24;1.80;;;1.40;;
70388;SDS011;58659;49.050;8.530;2023-07-29T18:31:49;1.30;;;1.00;;
70388;SDS011;58659;49.050;8.530;2023-07-29T18:34:17;3.27;;;1.30;;
70388;SDS011;58659;49.050;8.530;2023-07-29T18:36:44;6.73;;;1.60;;
70388;SDS011;58659;49.050;8.530;2023-07-29T18:39:09;1.53;;;1.43;;
70388;SDS011;58659;49.050;8.530;2023-07-29T18:41:34;2.67;;;1.33;;
70388;SDS011;58659;49.050;8.530;2023-07-29T18:44:00;2.27;;;1.30;;
70388;SDS011;58659;49.050;8.530;2023-07-29T18:46:25;4.70;;;1.60;;
70388;SDS011;58659;49.050;8.530;2023-07-29T18:48:54;2.50;;;1.33;;
70388;SDS011;58659;49.050;8.530;2023-07-29T18:51:20;2.43;;;1.83;;
70388;SDS011;58659;49.050;8.530;2023-07-29T18:53:46;3.13;;;1.50;;
70388;SDS011;58659;49.050;8.530;2023-07-29T18:56:11;2.10;;;1.40;;
70388;SDS011;58659;49.050;8.530;2023-07-29T18:58:36;1.63;;;1.43;;
70388;SDS011;58659;49.050;8.530;2023-07-29T19:01:02;3.33;;;1.47;;
70388;SDS011;58659;49.050;8.530;2023-07-29T19:03:27;1.73;;;1.20;;
70388;SDS011;58659;49.050;8.530;2023-07-29T19:05:56;2.33;;;1.27;;
70388;SDS011;58659;49.050;8.530;2023-07-29T19:08:22;1.97;;;1.30;;
70388;SDS011;58659;49.050;8.530;2023-07-29T19:10:50;4.33;;;2.07;;
70388;SDS011;58659;49.050;8.530;2023-07-29T19:13:15;1.30;;;1.03;;
70388;SDS011;58659;49.050;8.530;2023-07-29T19:15:41;2.40;;;1.57;;
70388;SDS011;58659;49.050;8.530;2023-07-29T19:18:13;4.07;;;1.20;;
70388;SDS011;58659;49.050;8.530;2023-07-29T19:20:39;1.53;;;1.20;;
70388;SDS011;58659;49.050;8.530;2023-07-29T19:23:07;2.37;;;1.30;;
70388;SDS011;58659;49.050;8.530;2023-07-29T19:25:33;1.90;;;1.33;;
70388;SDS011;58659;49.050;8.530;2023-07-29T19:27:58;3.33;;;1.40;;
70388;SDS011;58659;49.050;8.530;2023-07-29T19:30:23;1.97;;;1.47;;
70388;SDS011;58659;49.050;8.530;2023-07-29T19:32:49;5.37;;;1.50;;
70388;SDS011;58659;49.050;8.530;2023-07-29T19:35:14;4.30;;;1.40;;
70388;SDS011;58659;49.050;8.530;2023-07-29T19:37:39;1.13;;;1.00;;
70388;SDS011;58659;49.050;8.530;2023-07-29T19:40:05;1.47;;;1.20;;
70388;SDS011;58659;49.050;8.530;2023-07-29T19:42:31;2.67;;;1.60;;
70388;SDS011;58659;49.050;8.530;2023-07-29T19:44:56;4.77;;;1.73;;
70388;SDS011;58659;49.050;8.530;2023-07-29T19:47:21;1.63;;;1.20;;
70388;SDS011;58659;49.050;8.530;2023-07-29T19:49:49;1.77;;;1.10;;
70388;SDS011;58659;49.050;8.530;2023-07-29T19:52:15;3.37;;;1.43;;
70388;SDS011;58659;49.050;8.530;2023-07-29T19:54:40;2.33;;;1.33;;
70388;SDS011;58659;49.050;8.530;2023-07-29T19:57:06;1.93;;;1.37;;
70388;SDS011;58659;49.050;8.530;2023-07-29T19:59:32;6.10;;;1.47;;
70388;SDS011;58659;49.050;8.530;2023-07-29T20:01:57;2.20;;;1.50;;
70388;SDS011;58659;49.050;8.530;2023-07-29T20:04:22;4.37;;;1.73;;
70388;SDS011;58659;49.050;8.530;2023-07-29T20:06:48;1.93;;;1.40;;
70388;SDS011;58659;49.050;8.530;2023-07-29T20:09:18;2.27;;;1.43;;
70388;SDS011;58659;49.050;8.530;2023-07-29T20:11:43;2.40;;;1.40;;
70388;SDS011;58659;49.050;8.530;2023-07-29T20:14:08;1.57;;;1.10;;
70388;SDS011;58659;49.050;8.530;2023-07-29T20:16:34;1.80;;;1.30;;
70388;SDS011;58659;49.050;8.530;2023-07-29T20:18:59;4.00;;;1.87;;
70388;SDS011;58659;49.050;8.530;2023-07-29T20:21:25;3.17;;;1.33;;
70388;SDS011;58659;49.050;8.530;2023-07-29T20:23:50;1.97;;;1.37;;
70388;SDS011;58659;49.050;8.530;2023-07-29T20:26:16;2.47;;;1.67;;
70388;SDS011;58659;49.050;8.530;2023-07-29T20:28:41;1.67;;;1.50;;
70388;SDS011;58659;49.050;8.530;2023-07-29T20:31:07;5.03;;;1.73;;
70388;SDS011;58659;49.050;8.530;2023-07-29T20:33:33;2.50;;;1.53;;
70388;SDS011;58659;49.050;8.530;2023-07-29T20:35:59;2.87;;;1.40;;
70388;SDS011;58659;49.050;8.530;2023-07-29T20:38:24;2.53;;;1.30;;
70388;SDS011;58659;49.050;8.530;2023-07-29T20:40:51;2.03;;;1.30;;
70388;SDS011;58659;49.050;8.530;2023-07-29T20:43:17;4.03;;;1.40;;
70388;SDS011;58659;49.050;8.530;2023-07-29T20:45:43;2.60;;;1.30;;
70388;SDS011;58659;49.050;8.530;2023-07-29T20:48:09;3.70;;;1.83;;
70388;SDS011;58659;49.050;8.530;2023-07-29T20:50:37;2.00;;;1.50;;
70388;SDS011;58659;49.050;8.530;2023-07-29T20:53:03;2.67;;;1.60;;
70388;SDS011;58659;49.050;8.530;2023-07-29T20:55:28;2.43;;;1.60;;
70388;SDS011;58659;49.050;8.530;2023-07-29T20:57:54;4.00;;;1.60;;
70388;SDS011;58659;49.050;8.530;2023-07-29T21:00:19;1.70;;;1.30;;
70388;SDS011;58659;49.050;8.530;2023-07-29T21:02:44;3.17;;;1.70;;
70388;SDS011;58659;49.050;8.530;2023-07-29T21:05:10;5.10;;;1.50;;
70388;SDS011;58659;49.050;8.530;2023-07-29T21:07:35;2.80;;;1.50;;
70388;SDS011;58659;49.050;8.530;2023-07-29T21:10:00;1.97;;;1.50;;
70388;SDS011;58659;49.050;8.530;2023-07-29T21:12:27;2.67;;;1.50;;
70388;SDS011;58659;49.050;8.530;2023-07-29T21:14:52;6.20;;;1.70;;
70388;SDS011;58659;49.050;8.530;2023-07-29T21:17:18;4.50;;;1.70;;
70388;SDS011;58659;49.050;8.530;2023-07-29T21:19:43;1.60;;;1.50;;
70388;SDS011;58659;49.050;8.530;2023-07-29T21:22:08;3.40;;;1.80;;
70388;SDS011;58659;49.050;8.530;2023-07-29T21:24:34;7.40;;;1.90;;
70388;SDS011;58659;49.050;8.530;2023-07-29T21:27:00;4.97;;;1.40;;
70388;SDS011;58659;49.050;8.530;2023-07-29T21:29:25;4.17;;;1.90;;
70388;SDS011;58659;49.050;8.530;2023-07-29T21:31:51;3.87;;;2.60;;
70388;SDS011;58659;49.050;8.530;2023-07-29T21:34:16;3.37;;;1.77;;
70388;SDS011;58659;49.050;8.530;2023-07-29T21:36:41;4.17;;;1.80;;
70388;SDS011;58659;49.050;8.530;2023-07-29T21:39:06;3.97;;;2.03;;
70388;SDS011;58659;49.050;8.530;2023-07-29T21:41:32;6.57;;;2.07;;
70388;SDS011;58659;49.050;8.530;2023-07-29T21:43:59;5.83;;;2.53;;
70388;SDS011;58659;49.050;8.530;2023-07-29T21:48:49;5.17;;;2.23;;
70388;SDS011;58659;49.050;8.530;2023-07-29T23:35:29;2.77;;;0.87;;
70388;SDS011;58659;49.050;8.530;2023-07-29T23:37:55;0.93;;;0.77;;
70388;SDS011;58659;49.050;8.530;2023-07-29T23:40:21;1.77;;;0.60;;
70388;SDS011;58659;49.050;8.530;2023-07-29T23:42:46;1.30;;;0.70;;
70388;SDS011;58659;49.050;8.530;2023-07-29T23:45:11;0.53;;;0.53;;
70388;SDS011;58659;49.050;8.530;2023-07-29T23:47:37;0.70;;;0.70;;
70388;SDS011;58659;49.050;8.530;2023-07-29T23:50:02;1.13;;;0.80;;
70388;SDS011;58659;49.050;8.530;2023-07-29T23:52:28;1.10;;;0.60;;
70388;SDS011;58659;49.050;8.530;2023-07-29T23:54:53;1.80;;;0.67;;
70388;SDS011;58659;49.050;8.530;2023-07-29T23:57:18;2.57;;;0.63;;
70388;SDS011;58659;49.050;8.530;2023-07-29T23:59:44;0.90;;;0.60;;
